Time;durP1;ratioP1;P1;durP2;ratioP2;P2;SDS_P1;SDS_P2;PMS_P1;PMS_P2;Temp;Humidity;BMP_temperature;BMP_pressure;BME280_temperature;BME280_humidity;BME280_pressure;Samples;Min_cycle;Max_cycle;Signal;HPM_P1;HPM_P2
2023/01/19 00:01:25;;;;;;;8.53;7.60;;;;;;;-2.65;100.00;95748.69;5003346;28;20215;-65
2023/01/19 00:03:52;;;;;;;7.90;6.80;;;;;;;-2.77;100.00;95744.59;5005862;28;20200;-66
2023/01/19 00:06:20;;;;;;;7.20;6.47;;;;;;;-2.80;100.00;95750.84;4982100;28;20303;-65
2023/01/19 00:08:49;;;;;;;7.77;7.03;;;;;;;-2.81;100.00;95763.97;5001963;28;20218;-65
2023/01/19 00:11:17;;;;;;;8.07;7.37;;;;;;;-2.86;100.00;95766.13;4963105;28;20459;-65
2023/01/19 00:13:52;;;;;;;7.67;7.00;;;;;;;-2.97;100.00;95767.09;5006523;28;20203;-66
2023/01/19 00:16:21;;;;;;;7.73;7.03;;;;;;;-3.05;100.00;95778.13;5006147;28;20440;-65
2023/01/19 00:18:50;;;;;;;10.57;7.30;;;;;;;-3.03;100.00;95783.97;5006820;28;20469;-67
2023/01/19 00:21:18;;;;;;;7.70;6.93;;;;;;;-2.95;100.00;95783.31;5000564;28;20315;-67
2023/01/19 00:23:47;;;;;;;8.37;6.97;;;;;;;-2.89;100.00;95777.59;4981765;28;20230;-66
2023/01/19 00:26:16;;;;;;;8.10;7.37;;;;;;;-2.80;100.00;95786.34;4993065;28;20300;-66
2023/01/19 00:28:43;;;;;;;7.70;7.00;;;;;;;-2.82;100.00;95798.63;4957704;28;20869;-66
2023/01/19 00:31:11;;;;;;;8.97;7.37;;;;;;;-2.71;100.00;95792.47;5008896;28;20337;-67
2023/01/19 00:33:40;;;;;;;8.80;7.90;;;;;;;-2.69;100.00;95798.34;5002582;28;20231;-65
2023/01/19 00:36:09;;;;;;;7.60;7.00;;;;;;;-2.64;100.00;95802.19;5013388;28;20206;-64
2023/01/19 00:38:37;;;;;;;8.93;7.47;;;;;;;-2.51;100.00;95808.84;4984418;28;20599;-64
2023/01/19 00:41:05;;;;;;;9.13;7.83;;;;;;;-2.41;100.00;95812.28;5009227;28;20240;-66
2023/01/19 00:43:32;;;;;;;8.10;7.30;;;;;;;-2.31;100.00;95814.84;4964149;28;21906;-65
2023/01/19 00:45:59;;;;;;;8.40;7.60;;;;;;;-2.28;100.00;95817.19;5008533;28;20518;-66
2023/01/19 00:48:27;;;;;;;7.83;7.10;;;;;;;-2.21;100.00;95810.50;4993021;28;20224;-64
2023/01/19 00:50:56;;;;;;;7.23;6.53;;;;;;;-2.12;100.00;95818.41;5003517;28;20305;-65
2023/01/19 00:53:23;;;;;;;10.67;8.20;;;;;;;-2.10;100.00;95813.91;4986265;28;20636;-65
2023/01/19 00:55:51;;;;;;;7.93;7.23;;;;;;;-2.09;100.00;95818.13;5003828;28;20205;-66
2023/01/19 00:58:18;;;;;;;9.17;8.30;;;;;;;-2.04;100.00;95821.97;4966732;28;20220;-65
2023/01/19 01:00:46;;;;;;;8.33;7.53;;;;;;;-2.01;100.00;95813.06;5008032;28;20480;-66
2023/01/19 01:03:14;;;;;;;9.87;8.43;;;;;;;-2.02;100.00;95819.22;5011554;28;20217;-66
2023/01/19 01:05:42;;;;;;;8.90;8.00;;;;;;;-2.04;100.00;95821.97;5010307;28;20557;-67
2023/01/19 01:08:10;;;;;;;9.90;7.90;;;;;;;-2.10;100.00;95817.31;4997108;28;20727;-66
2023/01/19 01:10:38;;;;;;;9.27;8.23;;;;;;;-2.06;100.00;95820.44;4979653;28;20205;-65
2023/01/19 01:13:06;;;;;;;8.03;7.00;;;;;;;-2.09;100.00;95818.94;4966507;28;20673;-66
2023/01/19 01:15:49;;;;;;;9.03;8.00;;;;;;;-2.14;100.00;95826.31;5008050;28;20213;-65
2023/01/19 01:18:17;;;;;;;9.30;7.57;;;;;;;-2.19;100.00;95826.75;4952486;28;20841;-65
2023/01/19 01:20:44;;;;;;;8.50;7.70;;;;;;;-2.21;100.00;95827.84;4992924;28;20319;-64
2023/01/19 01:23:14;;;;;;;9.37;8.47;;;;;;;-2.25;100.00;95834.25;5007043;28;20648;-65
2023/01/19 01:25:42;;;;;;;8.40;7.63;;;;;;;-2.27;100.00;95843.97;4988822;28;20289;-66
2023/01/19 01:28:10;;;;;;;10.63;8.30;;;;;;;-2.21;100.00;95848.59;5009117;28;20243;-65
2023/01/19 01:30:39;;;;;;;7.77;7.17;;;;;;;-2.21;100.00;95854.63;5012390;28;20390;-67
2023/01/19 01:33:07;;;;;;;8.90;7.30;;;;;;;-2.16;100.00;95853.38;4963453;28;20408;-65
2023/01/19 01:35:35;;;;;;;10.10;8.07;;;;;;;-2.19;100.00;95862.25;5010958;28;20204;-66
2023/01/19 01:38:03;;;;;;;9.50;8.50;;;;;;;-2.18;100.00;95866.47;5010792;28;20250;-65
2023/01/19 01:40:32;;;;;;;9.00;8.03;;;;;;;-2.17;100.00;95862.94;4988739;28;21407;-65
2023/01/19 01:43:00;;;;;;;9.60;8.53;;;;;;;-2.25;100.00;95866.22;5009351;28;20250;-66
2023/01/19 01:45:31;;;;;;;8.50;7.70;;;;;;;-2.28;100.00;95870.88;5006972;28;20413;-67
2023/01/19 01:48:02;;;;;;;8.70;7.80;;;;;;;-2.31;100.00;95877.13;4965874;28;20647;-66
2023/01/19 01:50:32;;;;;;;8.00;7.30;;;;;;;-2.50;100.00;95867.56;5007827;28;20391;-65
2023/01/19 01:53:03;;;;;;;8.93;8.13;;;;;;;-2.62;100.00;95870.28;5006730;28;20204;-67
2023/01/19 01:55:38;;;;;;;7.90;7.10;;;;;;;-2.73;100.00;95879.94;4993397;28;20734;-66
2023/01/19 01:58:06;;;;;;;10.53;7.87;;;;;;;-2.78;100.00;95883.75;5010299;28;20786;-64
2023/01/19 02:02:49;;;;;;;8.63;7.83;;;;;;;-2.80;100.00;95888.25;4995067;28;20410;-67
2023/01/19 02:03:21;;;;;;;10.03;7.20;;;;;;;-2.86;100.00;95891.38;4956674;28;20454;-67
2023/01/19 02:05:50;;;;;;;8.13;7.37;;;;;;;-2.94;100.00;95889.44;5008247;28;20254;-65
2023/01/19 02:13:52;;;;;;;9.43;7.80;;;;;;;-2.86;100.00;95900.91;5004609;28;20299;-66
2023/01/19 02:16:20;;;;;;;9.03;8.10;;;;;;;-2.87;100.00;95904.47;5004940;28;20210;-65
2023/01/19 02:18:47;;;;;;;8.43;7.63;;;;;;;-2.89;100.00;95912.38;4961736;28;20329;-65
2023/01/19 02:21:19;;;;;;;8.50;7.63;;;;;;;-2.96;100.00;95917.25;4997454;28;20571;-64
2023/01/19 02:23:50;;;;;;;8.97;7.87;;;;;;;-3.02;100.00;95917.00;5011394;28;20204;-67
2023/01/19 02:26:21;;;;;;;10.20;9.13;;;;;;;-3.08;100.00;95919.13;4999444;28;20495;-65
2023/01/19 02:28:53;;;;;;;12.00;9.73;;;;;;;-3.16;100.00;95920.75;4989037;28;20291;-67
2023/01/19 02:31:20;;;;;;;11.03;10.00;;;;;;;-3.23;100.00;95920.44;5004737;28;20496;-65
2023/01/19 02:33:48;;;;;;;12.57;10.37;;;;;;;-3.26;100.00;95918.91;4963033;28;20236;-66
2023/01/19 02:36:17;;;;;;;11.57;10.47;;;;;;;-3.30;100.00;95916.72;5006367;28;21447;-64
2023/01/19 02:38:45;;;;;;;10.90;9.80;;;;;;;-3.18;100.00;95927.81;5001816;28;20220;-66
2023/01/19 02:41:17;;;;;;;11.60;10.40;;;;;;;-3.13;100.00;95926.47;5011385;28;20964;-65
2023/01/19 02:43:46;;;;;;;11.50;9.83;;;;;;;-3.14;100.00;95924.84;4988856;28;20735;-67
2023/01/19 02:46:14;;;;;;;11.13;10.13;;;;;;;-3.12;100.00;95932.50;4999732;28;20212;-65
2023/01/19 02:48:42;;;;;;;10.93;9.93;;;;;;;-3.11;100.00;95926.34;5008830;28;20649;-67
2023/01/19 02:51:12;;;;;;;11.03;10.00;;;;;;;-3.03;100.00;95923.94;4960145;28;20215;-65
2023/01/19 02:53:53;;;;;;;11.10;10.00;;;;;;;-2.98;100.00;95924.34;5009692;28;20653;-67
2023/01/19 02:56:38;;;;;;;11.60;10.20;;;;;;;-2.95;100.00;95929.28;5008546;28;20201;-66
2023/01/19 02:59:13;;;;;;;12.13;10.93;;;;;;;-2.90;100.00;95936.66;4996946;28;20224;-65
2023/01/19 03:01:53;;;;;;;11.90;10.73;;;;;;;-2.76;100.00;95935.50;4982069;28;20287;-66
2023/01/19 03:04:28;;;;;;;12.23;10.97;;;;;;;-2.75;100.00;95934.53;4951515;28;21888;-66
2023/01/19 03:07:00;;;;;;;12.03;10.53;;;;;;;-2.71;100.00;95920.34;5007347;28;20203;-66
2023/01/19 03:09:31;;;;;;;11.53;10.33;;;;;;;-2.62;100.00;95924.75;5007033;28;20410;-67
2023/01/19 03:12:06;;;;;;;12.07;10.80;;;;;;;-2.60;100.00;95926.38;5010347;28;20286;-66
2023/01/19 03:14:39;;;;;;;11.70;10.40;;;;;;;-2.59;100.00;95926.25;5002181;28;20751;-64
2023/01/19 03:17:10;;;;;;;11.83;10.63;;;;;;;-2.56;100.00;95927.75;4986740;28;20709;-64
2023/01/19 03:19:41;;;;;;;11.57;10.40;;;;;;;-2.56;100.00;95925.16;5002757;28;20205;-67
2023/01/19 03:22:11;;;;;;;12.27;11.07;;;;;;;-2.55;100.00;95925.03;4957768;28;20686;-65
2023/01/19 03:24:42;;;;;;;12.93;11.63;;;;;;;-2.63;100.00;95919.69;4953193;28;20208;-64
2023/01/19 03:27:14;;;;;;;12.50;11.30;;;;;;;-2.56;100.00;95930.34;5007233;28;20551;-65
2023/01/19 03:29:43;;;;;;;12.90;11.50;;;;;;;-2.55;100.00;95919.84;5005277;28;20570;-65
2023/01/19 03:32:13;;;;;;;11.60;10.50;;;;;;;-2.53;100.00;95923.13;5006798;28;20695;-66
2023/01/19 03:34:41;;;;;;;12.23;10.83;;;;;;;-2.62;100.00;95916.16;5006150;28;20200;-65
2023/01/19 03:37:11;;;;;;;11.97;10.77;;;;;;;-2.64;100.00;95916.28;4998277;28;20247;-67
2023/01/19 03:39:38;;;;;;;12.17;10.50;;;;;;;-2.72;100.00;95921.31;4961828;28;20204;-65
2023/01/19 03:42:09;;;;;;;11.97;10.87;;;;;;;-2.73;100.00;95921.44;4999806;28;20215;-65
2023/01/19 03:44:40;;;;;;;13.03;11.73;;;;;;;-2.79;100.00;95921.00;5002808;28;20217;-65
2023/01/19 03:47:10;;;;;;;12.93;11.63;;;;;;;-2.88;100.00;95929.59;5008947;28;20211;-66
2023/01/19 03:49:39;;;;;;;12.63;11.33;;;;;;;-3.03;100.00;95917.91;5005956;28;20195;-65
2023/01/19 03:52:06;;;;;;;12.80;11.60;;;;;;;-3.07;100.00;95935.50;5002125;28;20351;-66
2023/01/19 03:54:34;;;;;;;13.07;11.43;;;;;;;-3.27;100.00;95924.22;5008205;28;20690;-65
2023/01/19 03:57:02;;;;;;;12.40;11.20;;;;;;;-3.34;100.00;95931.69;4962235;28;20330;-67
2023/01/19 03:59:29;;;;;;;12.90;11.40;;;;;;;-3.40;100.00;95930.44;5008094;28;20255;-66
2023/01/19 04:01:58;;;;;;;12.53;11.23;;;;;;;-3.45;100.00;95936.94;4999058;28;20821;-67
2023/01/19 04:04:26;;;;;;;11.60;10.57;;;;;;;-3.56;100.00;95935.25;5008557;28;20224;-66
2023/01/19 04:06:54;;;;;;;12.40;11.13;;;;;;;-3.64;100.00;95933.28;4994705;28;20205;-65
2023/01/19 04:09:21;;;;;;;13.10;11.10;;;;;;;-3.81;100.00;95926.88;5009456;28;20704;-66
2023/01/19 04:11:49;;;;;;;15.53;11.83;;;;;;;-3.84;100.00;95927.16;4934361;28;20208;-66
2023/01/19 04:14:17;;;;;;;13.57;12.20;;;;;;;-3.86;100.00;95924.69;5006254;28;20346;-64
2023/01/19 04:16:44;;;;;;;12.23;11.03;;;;;;;-3.87;100.00;95925.66;5009590;28;20212;-67
2023/01/19 04:19:13;;;;;;;11.70;10.50;;;;;;;-3.93;100.00;95921.78;5007590;28;20217;-66
2023/01/19 04:21:41;;;;;;;11.97;10.20;;;;;;;-4.02;100.00;95930.28;4979262;28;20433;-67
2023/01/19 04:24:09;;;;;;;12.47;11.13;;;;;;;-4.12;100.00;95935.38;5002133;28;20590;-64
2023/01/19 04:26:37;;;;;;;12.50;11.30;;;;;;;-4.13;100.00;95938.91;4950526;28;20825;-63
2023/01/19 04:29:04;;;;;;;11.90;10.73;;;;;;;-4.18;100.00;95935.03;4983122;28;20231;-66
2023/01/19 04:31:34;;;;;;;13.43;11.30;;;;;;;-4.28;100.00;95940.16;5009254;28;20234;-66
2023/01/19 04:34:02;;;;;;;11.83;10.70;;;;;;;-4.28;100.00;95943.53;4991439;28;20200;-66
2023/01/19 04:36:31;;;;;;;12.00;10.53;;;;;;;-4.38;100.00;95940.88;5002021;28;20418;-66
2023/01/19 04:38:58;;;;;;;12.27;11.00;;;;;;;-4.44;100.00;95943.13;5006010;28;20573;-66
2023/01/19 04:41:26;;;;;;;12.47;10.63;;;;;;;-4.46;100.00;95942.44;4960802;28;20244;-65
2023/01/19 04:43:54;;;;;;;11.80;10.23;;;;;;;-4.47;100.00;95943.38;4992477;28;20223;-64
2023/01/19 04:46:21;;;;;;;12.83;10.33;;;;;;;-4.49;100.00;95947.84;4994810;28;20879;-66
2023/01/19 04:48:49;;;;;;;13.70;12.03;;;;;;;-4.56;100.00;95950.09;5009232;28;20600;-64
2023/01/19 04:51:17;;;;;;;13.53;11.43;;;;;;;-4.62;100.00;95942.81;4981507;28;20728;-66
2023/01/19 04:53:46;;;;;;;12.80;11.23;;;;;;;-4.61;100.00;95942.69;5006350;28;20608;-65
2023/01/19 04:56:13;;;;;;;11.73;10.67;;;;;;;-4.68;100.00;95944.94;4956454;28;20231;-66
2023/01/19 04:58:41;;;;;;;14.50;11.17;;;;;;;-4.77;100.00;95934.50;5007231;28;20232;-66
2023/01/19 05:01:08;;;;;;;12.53;11.30;;;;;;;-4.80;100.00;95938.97;5004680;28;20419;-64
2023/01/19 05:03:36;;;;;;;17.97;14.33;;;;;;;-4.85;100.00;95948.84;5008659;28;20801;-66
2023/01/19 05:06:04;;;;;;;16.07;14.63;;;;;;;-4.86;100.00;95942.03;4999309;28;20316;-66
2023/01/19 05:08:32;;;;;;;13.87;12.43;;;;;;;-4.83;100.00;95944.38;5002174;28;20307;-64
2023/01/19 05:11:01;;;;;;;18.20;11.97;;;;;;;-4.85;100.00;95940.25;4999672;28;20583;-64
2023/01/19 05:13:29;;;;;;;13.53;11.90;;;;;;;-4.89;100.00;95938.84;4959886;28;20208;-66
2023/01/19 05:15:56;;;;;;;12.10;10.90;;;;;;;-5.00;100.00;95943.09;5000661;28;20463;-66
2023/01/19 05:18:24;;;;;;;10.90;9.10;;;;;;;-5.03;100.00;95950.22;5011345;28;20648;-65
2023/01/19 05:20:52;;;;;;;12.60;11.37;;;;;;;-5.01;100.00;95945.78;5000604;28;20557;-63
2023/01/19 05:23:19;;;;;;;16.20;13.13;;;;;;;-4.96;100.00;95949.66;5003316;28;20228;-66
2023/01/19 05:25:47;;;;;;;12.60;11.10;;;;;;;-4.96;100.00;95954.81;4996002;28;20478;-65
2023/01/19 05:28:16;;;;;;;13.67;12.37;;;;;;;-5.03;100.00;95952.81;4969616;28;20641;-66
2023/01/19 05:30:44;;;;;;;14.97;11.80;;;;;;;-5.05;100.00;95963.28;4955658;28;20942;-66
2023/01/19 05:33:11;;;;;;;13.07;11.67;;;;;;;-5.14;100.00;95949.31;5013598;28;20997;-64
2023/01/19 05:35:39;;;;;;;13.63;12.30;;;;;;;-5.09;100.00;95961.88;4996078;28;20795;-65
2023/01/19 05:38:07;;;;;;;15.63;12.27;;;;;;;-5.17;100.00;95959.88;5010073;28;20735;-65
2023/01/19 05:40:35;;;;;;;12.83;11.47;;;;;;;-5.15;100.00;95951.97;4987679;28;20226;-66
2023/01/19 05:43:03;;;;;;;12.03;10.83;;;;;;;-5.28;100.00;95942.59;5002895;28;20296;-70
2023/01/19 05:45:33;;;;;;;14.43;12.40;;;;;;;-5.24;100.00;95962.09;5005701;28;20391;-66
2023/01/19 05:48:01;;;;;;;16.33;13.73;;;;;;;-5.24;100.00;95961.28;4975506;28;20232;-66
2023/01/19 05:50:28;;;;;;;13.80;12.30;;;;;;;-5.20;100.00;95967.00;5007188;28;20212;-66
2023/01/19 05:52:56;;;;;;;12.93;11.63;;;;;;;-5.21;100.00;95961.03;5006740;28;20464;-64
2023/01/19 05:55:24;;;;;;;13.80;12.10;;;;;;;-5.30;100.00;95956.56;4973053;28;20455;-65
2023/01/19 05:57:51;;;;;;;14.67;13.17;;;;;;;-5.41;100.00;95963.34;5008647;28;20695;-69
2023/01/19 06:00:19;;;;;;;12.83;11.53;;;;;;;-5.43;100.00;95965.22;5001444;28;20205;-65
2023/01/19 06:02:48;;;;;;;14.50;12.63;;;;;;;-5.42;100.00;95963.47;4957715;28;20473;-67
2023/01/19 06:05:16;;;;;;;13.60;12.27;;;;;;;-5.55;100.00;95972.13;4999454;28;20712;-65
2023/01/19 06:07:44;;;;;;;12.63;11.27;;;;;;;-5.59;100.00;95965.53;5004761;28;20525;-66
2023/01/19 06:10:12;;;;;;;12.03;10.27;;;;;;;-5.52;100.00;95971.88;4987231;28;20204;-65
2023/01/19 06:12:40;;;;;;;14.53;12.40;;;;;;;-5.54;100.00;95972.94;4997656;28;20212;-67
2023/01/19 06:15:08;;;;;;;13.13;11.53;;;;;;;-5.55;100.00;95982.44;5006598;28;20297;-65
2023/01/19 06:17:36;;;;;;;15.43;13.37;;;;;;;-5.65;100.00;95978.09;5010670;28;20766;-67
2023/01/19 06:20:05;;;;;;;15.37;13.43;;;;;;;-5.62;100.00;95983.84;4962863;28;20691;-65
2023/01/19 06:22:33;;;;;;;15.70;12.23;;;;;;;-5.70;100.00;95996.50;5003578;28;20323;-67
2023/01/19 06:25:01;;;;;;;14.20;12.77;;;;;;;-5.73;100.00;95994.13;4998920;28;20236;-67
2023/01/19 06:27:28;;;;;;;14.90;12.13;;;;;;;-5.70;100.00;95994.72;4984530;28;20279;-68
2023/01/19 06:29:56;;;;;;;13.17;11.83;;;;;;;-5.75;100.00;95985.69;5005791;28;20458;-69
2023/01/19 06:32:24;;;;;;;12.40;11.30;;;;;;;-5.71;100.00;96008.56;5000819;28;20219;-68
2023/01/19 06:34:51;;;;;;;14.37;12.87;;;;;;;-5.70;100.00;96015.34;4963627;28;20661;-70
2023/01/19 06:37:23;;;;;;;14.87;12.13;;;;;;;-5.68;100.00;96021.25;4984378;28;20328;-67
2023/01/19 06:39:51;;;;;;;13.53;12.23;;;;;;;-5.61;100.00;96026.78;5003705;28;20574;-68
2023/01/19 06:42:19;;;;;;;14.80;13.43;;;;;;;-5.64;100.00;96028.78;4984867;28;20215;-68
2023/01/19 06:44:47;;;;;;;15.00;12.07;;;;;;;-5.63;100.00;96025.25;5004764;28;20236;-67
2023/01/19 06:47:14;;;;;;;14.63;13.13;;;;;;;-5.59;100.00;96035.22;5005649;28;20862;-67
2023/01/19 06:49:43;;;;;;;14.17;12.67;;;;;;;-5.58;100.00;96039.47;4959028;28;22821;-67
2023/01/19 06:52:12;;;;;;;13.20;12.00;;;;;;;-5.63;100.00;96043.31;5002215;28;20228;-67
2023/01/19 06:54:42;;;;;;;13.50;12.17;;;;;;;-5.65;100.00;96034.88;5001998;28;20459;-65
2023/01/19 06:57:12;;;;;;;16.57;13.97;;;;;;;-5.71;100.00;96038.72;4987721;28;20286;-67
2023/01/19 06:59:39;;;;;;;13.60;12.20;;;;;;;-5.62;100.00;96058.69;5006632;28;20319;-65
2023/01/19 07:02:07;;;;;;;13.33;12.10;;;;;;;-5.61;100.00;96064.69;5003826;28;20546;-68
2023/01/19 07:04:53;;;;;;;14.57;13.07;;;;;;;-5.52;100.00;96069.16;5003462;28;20224;-69
2023/01/19 07:07:21;;;;;;;16.40;13.40;;;;;;;-5.52;100.00;96069.97;4957763;28;20339;-66
2023/01/19 07:09:50;;;;;;;16.73;14.30;;;;;;;-5.40;100.00;96072.63;5006815;28;20238;-69
2023/01/19 07:12:21;;;;;;;14.30;12.97;;;;;;;-5.41;100.00;96078.72;4994000;28;20462;-65
2023/01/19 07:14:49;;;;;;;16.67;13.90;;;;;;;-5.39;100.00;96080.25;5007666;28;20682;-69
2023/01/19 07:17:16;;;;;;;14.93;13.37;;;;;;;-5.41;100.00;96084.69;4999339;28;20464;-65
2023/01/19 07:19:45;;;;;;;19.37;15.60;;;;;;;-5.42;100.00;96084.81;4981206;28;20882;-68
2023/01/19 07:22:12;;;;;;;22.40;16.23;;;;;;;-5.40;100.00;96088.13;4963785;28;21110;-67
2023/01/19 07:24:40;;;;;;;16.90;15.07;;;;;;;-5.34;100.00;96092.81;4959534;28;20481;-68
2023/01/19 07:27:10;;;;;;;19.37;16.07;;;;;;;-5.26;100.00;96105.19;5007555;28;20985;-69
2023/01/19 07:29:38;;;;;;;22.00;16.00;;;;;;;-5.09;100.00;96109.91;4970087;28;20219;-69
2023/01/19 07:32:06;;;;;;;17.90;15.00;;;;;;;-4.85;100.00;96108.22;5004873;28;20209;-68
2023/01/19 07:34:35;;;;;;;17.67;15.00;;;;;;;-4.69;100.00;96108.72;5009317;28;20211;-68
2023/01/19 07:37:03;;;;;;;16.97;15.20;;;;;;;-4.65;100.00;96107.56;4968098;28;20215;-69
2023/01/19 07:39:31;;;;;;;15.63;14.13;;;;;;;-4.63;100.00;96119.53;4966537;28;20872;-69
2023/01/19 07:41:58;;;;;;;16.37;14.67;;;;;;;-4.57;100.00;96119.06;4997126;28;20462;-67
2023/01/19 07:44:27;;;;;;;18.37;16.40;;;;;;;-4.46;100.00;96120.84;5010989;28;20208;-68
2023/01/19 07:46:55;;;;;;;17.77;15.93;;;;;;;-4.45;100.00;96109.56;4984087;28;20238;-66
2023/01/19 07:49:22;;;;;;;17.67;15.63;;;;;;;-4.39;100.00;96119.44;5006707;28;20216;-67
2023/01/19 07:51:50;;;;;;;16.37;14.67;;;;;;;-4.28;100.00;96121.22;5005445;28;20204;-69
2023/01/19 07:54:19;;;;;;;16.53;14.90;;;;;;;-4.13;100.00;96119.22;4966994;28;20224;-69
2023/01/19 07:56:46;;;;;;;16.70;15.00;;;;;;;-4.06;100.00;96117.78;5009759;28;20192;-67
2023/01/19 07:59:14;;;;;;;16.30;14.43;;;;;;;-4.02;100.00;96113.19;5007786;28;20224;-68
2023/01/19 08:01:43;;;;;;;18.33;15.00;;;;;;;-4.10;100.00;96116.38;5003877;28;20208;-68
2023/01/19 08:04:11;;;;;;;16.90;15.13;;;;;;;-4.15;100.00;96118.50;4992953;28;21241;-68
2023/01/19 08:06:39;;;;;;;17.27;15.33;;;;;;;-4.12;100.00;96121.66;5002544;28;20798;-68
2023/01/19 08:09:07;;;;;;;16.27;14.60;;;;;;;-4.10;100.00;96127.53;4968784;28;22133;-68
2023/01/19 08:11:35;;;;;;;15.30;13.77;;;;;;;-4.13;100.00;96121.78;5009303;28;20207;-66
2023/01/19 08:14:03;;;;;;;15.00;13.57;;;;;;;-4.17;100.00;96123.78;5000643;28;20211;-68
2023/01/19 08:16:34;;;;;;;14.80;13.43;;;;;;;-4.07;100.00;96129.06;5001212;28;20221;-68
2023/01/19 08:19:03;;;;;;;16.67;14.47;;;;;;;-3.95;100.00;96130.69;4981227;28;20624;-69
2023/01/19 08:21:32;;;;;;;15.87;14.20;;;;;;;-3.89;100.00;96133.75;4979064;28;20774;-66
2023/01/19 08:23:59;;;;;;;19.00;14.57;;;;;;;-3.76;100.00;96136.22;5006863;28;20530;-66
2023/01/19 08:26:29;;;;;;;16.30;14.27;;;;;;;-3.80;100.00;96120.91;4962783;28;20639;-66
2023/01/19 08:28:58;;;;;;;19.03;15.60;;;;;;;-3.59;100.00;96127.94;5010718;28;20220;-68
2023/01/19 08:31:26;;;;;;;18.73;15.43;;;;;;;-3.46;100.00;96132.13;5002287;28;20224;-66
2023/01/19 08:33:54;;;;;;;17.63;15.43;;;;;;;-3.50;100.00;96127.22;4983668;28;20231;-68
2023/01/19 08:36:23;;;;;;;20.10;14.60;;;;;;;-3.45;100.00;96136.38;5000350;28;20623;-66
2023/01/19 08:38:52;;;;;;;18.30;14.73;;;;;;;-3.50;100.00;96118.59;4991615;28;21037;-68
2023/01/19 08:41:19;;;;;;;14.63;13.03;;;;;;;-3.50;100.00;96129.78;4959264;28;20211;-67
2023/01/19 08:43:47;;;;;;;17.23;14.47;;;;;;;-3.50;100.00;96134.97;4999551;28;20200;-67
2023/01/19 08:46:16;;;;;;;13.80;11.80;;;;;;;-3.54;100.00;96138.75;5004682;28;20228;-66
2023/01/19 08:48:46;;;;;;;14.67;13.17;;;;;;;-3.41;100.00;96143.78;4985071;28;20978;-67
2023/01/19 08:51:15;;;;;;;15.07;13.53;;;;;;;-2.98;100.00;96146.44;5007081;28;20200;-65
2023/01/19 08:53:44;;;;;;;15.20;13.80;;;;;;;-2.72;100.00;96140.88;4974541;28;20223;-65
2023/01/19 08:56:12;;;;;;;14.87;13.47;;;;;;;-2.54;100.00;96138.53;4964465;28;20232;-65
2023/01/19 08:58:40;;;;;;;15.63;13.50;;;;;;;-2.57;100.00;96131.84;4987192;28;20225;-64
2023/01/19 09:01:08;;;;;;;14.70;13.17;;;;;;;-2.74;100.00;96124.63;5003626;28;20857;-64
2023/01/19 09:03:36;;;;;;;15.10;13.33;;;;;;;-2.73;100.00;96140.06;5006359;28;20227;-65
2023/01/19 09:06:05;;;;;;;12.77;11.57;;;;;;;-2.56;100.00;96143.88;4992356;28;20216;-64
2023/01/19 09:08:33;;;;;;;13.80;12.40;;;;;;;-2.54;100.00;96135.94;5002034;28;20215;-64
2023/01/19 09:11:04;;;;;;;15.77;13.53;;;;;;;-2.63;100.00;96129.78;4987816;28;20824;-65
2023/01/19 09:13:32;;;;;;;13.90;12.50;;;;;;;-2.53;100.00;96138.41;4992622;28;20220;-64
2023/01/19 09:16:02;;;;;;;14.17;12.63;;;;;;;-2.70;100.00;96138.97;5008821;28;20216;-65
2023/01/19 09:18:30;;;;;;;13.80;12.27;;;;;;;-2.63;100.00;96140.16;5008827;28;20845;-65
2023/01/19 09:20:58;;;;;;;13.10;11.90;;;;;;;-2.54;100.00;96135.94;4989469;28;20219;-64
2023/01/19 09:23:25;;;;;;;13.80;12.10;;;;;;;-2.41;100.00;96139.16;4984846;28;20200;-64
2023/01/19 09:25:56;;;;;;;13.20;11.90;;;;;;;-2.38;100.00;96141.50;4998935;28;20514;-64
2023/01/19 09:28:26;;;;;;;14.73;13.37;;;;;;;-2.42;100.00;96142.72;4968612;28;20220;-64
2023/01/19 09:30:54;;;;;;;13.97;12.47;;;;;;;-2.21;100.00;96142.69;5005644;28;20407;-65
2023/01/19 09:33:23;;;;;;;13.73;12.27;;;;;;;-2.04;100.00;96136.06;4997797;28;20216;-64
2023/01/19 09:35:51;;;;;;;13.83;12.53;;;;;;;-1.98;100.00;96137.28;4986434;28;20312;-64
2023/01/19 09:38:19;;;;;;;14.13;12.80;;;;;;;-1.80;100.00;96145.28;5009611;28;20477;-66
2023/01/19 09:40:49;;;;;;;12.47;11.17;;;;;;;-1.70;100.00;96136.72;5008965;28;20453;-67
2023/01/19 09:43:28;;;;;;;12.93;11.73;;;;;;;-1.59;100.00;96144.38;4968073;28;20306;-66
2023/01/19 09:45:58;;;;;;;10.97;9.97;;;;;;;-1.62;100.00;96134.25;4956670;28;20234;-66
2023/01/19 09:48:30;;;;;;;11.57;10.40;;;;;;;-1.46;100.00;96128.53;5021763;28;20588;-68
2023/01/19 09:51:02;;;;;;;10.20;9.23;;;;;;;-1.31;100.00;96132.38;5016126;28;20608;-64
2023/01/19 09:53:40;;;;;;;13.63;10.90;;;;;;;-1.23;100.00;96133.47;5017685;28;20214;-66
2023/01/19 09:56:12;;;;;;;11.40;10.37;;;;;;;-1.37;100.00;96132.94;5015703;28;20234;-66
2023/01/19 09:58:42;;;;;;;11.27;10.20;;;;;;;-1.41;100.00;96130.72;5009223;28;20241;-66
2023/01/19 10:01:19;;;;;;;11.40;10.40;;;;;;;-1.42;100.00;96131.69;5008797;28;20213;-66
2023/01/19 10:03:50;;;;;;;8.90;8.10;;;;;;;-1.53;100.00;96124.81;4979030;28;20299;-65
2023/01/19 10:06:17;;;;;;;8.43;7.73;;;;;;;-1.68;100.00;96125.22;5000570;28;20252;-66
2023/01/19 10:08:50;;;;;;;7.63;6.87;;;;;;;-1.54;100.00;96131.81;5010798;28;20228;-64
2023/01/19 10:11:30;;;;;;;7.87;7.07;;;;;;;-1.27;100.00;96122.53;5011838;28;20310;-66
2023/01/19 10:14:18;;;;;;;7.60;6.83;;;;;;;-1.40;98.81;96127.16;4992055;28;20454;-66
2023/01/19 10:16:51;;;;;;;8.10;7.30;;;;;;;-1.39;97.94;96121.84;5008774;28;20210;-64
2023/01/19 10:19:22;;;;;;;9.40;7.50;;;;;;;-1.22;97.03;96119.53;4967615;28;20722;-66
2023/01/19 10:21:50;;;;;;;7.87;7.07;;;;;;;-1.09;98.08;96120.09;5005745;28;20700;-63
2023/01/19 10:24:21;;;;;;;7.07;6.50;;;;;;;-1.13;95.46;96113.53;5003826;28;20593;-66
2023/01/19 10:26:51;;;;;;;7.90;7.10;;;;;;;-1.00;95.01;96113.22;4989784;28;20231;-64
2023/01/19 10:29:22;;;;;;;7.23;6.63;;;;;;;-1.03;94.11;96119.53;5008568;28;20334;-65
2023/01/19 10:31:52;;;;;;;8.30;7.27;;;;;;;-0.93;94.14;96121.31;5005210;28;20204;-65
2023/01/19 10:34:20;;;;;;;8.77;7.93;;;;;;;-1.20;95.21;96123.63;4963028;28;20468;-66
2023/01/19 10:36:54;;;;;;;9.77;8.77;;;;;;;-0.86;96.08;96114.56;4965250;28;20544;-64
2023/01/19 10:39:22;;;;;;;8.40;7.80;;;;;;;-1.01;94.93;96124.59;4998626;28;20228;-64
2023/01/19 10:41:51;;;;;;;8.23;7.57;;;;;;;-1.10;94.73;96112.41;5002581;28;20207;-64
2023/01/19 10:44:25;;;;;;;8.23;7.50;;;;;;;-1.12;94.72;96124.72;4989057;28;20209;-63
2023/01/19 10:46:54;;;;;;;8.97;7.97;;;;;;;-1.27;95.05;96127.75;4993534;28;20220;-64
2023/01/19 10:49:27;;;;;;;7.00;6.50;;;;;;;-1.08;96.30;96119.13;4968463;28;20220;-65
2023/01/19 10:51:55;;;;;;;8.10;7.43;;;;;;;-1.07;95.74;96114.72;5005747;28;20563;-64
2023/01/19 10:54:24;;;;;;;8.47;7.77;;;;;;;-0.85;95.86;96118.03;5002651;28;20264;-64
2023/01/19 10:56:54;;;;;;;8.90;8.10;;;;;;;-0.89;95.54;96115.69;5009789;28;20295;-65
2023/01/19 10:59:32;;;;;;;9.60;8.70;;;;;;;-0.93;94.79;96113.50;4985670;28;20251;-64
2023/01/19 11:02:19;;;;;;;7.53;6.87;;;;;;;-0.72;93.37;96110.72;5008011;28;20204;-64
2023/01/19 11:04:48;;;;;;;7.73;6.83;;;;;;;-0.81;91.58;96106.38;4965731;28;20212;-65
2023/01/19 11:07:20;;;;;;;7.57;6.97;;;;;;;-0.72;90.82;96108.13;5000280;28;20236;-65
2023/01/19 11:09:48;;;;;;;7.87;7.17;;;;;;;-0.76;90.23;96109.38;5008268;28;20553;-65
2023/01/19 11:12:17;;;;;;;7.00;6.30;;;;;;;-0.62;89.56;96105.50;5010301;28;20204;-64
2023/01/19 11:14:47;;;;;;;6.40;5.80;;;;;;;-0.51;88.04;96114.94;4993691;28;20335;-65
2023/01/19 11:17:20;;;;;;;6.40;5.90;;;;;;;-0.24;88.24;96090.75;5005767;28;20704;-64
2023/01/19 11:19:56;;;;;;;7.80;7.17;;;;;;;-0.04;87.44;96101.06;4956762;28;20320;-64
2023/01/19 11:22:28;;;;;;;10.67;6.70;;;;;;;-0.02;86.27;96096.53;5000034;28;20200;-64
2023/01/19 11:24:59;;;;;;;6.77;6.17;;;;;;;-0.15;84.97;96096.88;5007443;28;20688;-64
2023/01/19 11:27:27;;;;;;;6.73;6.23;;;;;;;-0.04;84.19;96098.44;5010991;28;20224;-64
2023/01/19 11:30:04;;;;;;;7.10;6.50;;;;;;;0.35;83.70;96087.03;5011429;28;20702;-65